sensor_id;sensor_type;location;lat;lon;timestamp;pressure;altitude;pressure_sealevel;temperature;humidity
2841;BME280;53423;49.224;12.074;2022-10-17T00:02:17;98433.06;;;14.57;74.40
2841;BME280;53423;49.224;12.074;2022-10-17T00:04:45;98429.63;;;14.48;74.67
2841;BME280;53423;49.224;12.074;2022-10-17T00:07:14;98427.50;;;14.44;73.98
2841;BME280;53423;49.224;12.074;2022-10-17T00:09:43;98428.66;;;14.49;73.90
2841;BME280;53423;49.224;12.074;2022-10-17T00:12:11;98425.84;;;14.51;73.71
2841;BME280;53423;49.224;12.074;2022-10-17T00:14:39;98437.22;;;14.51;73.36
2841;BME280;53423;49.224;12.074;2022-10-17T00:17:06;98433.25;;;14.47;74.40
2841;BME280;53423;49.224;12.074;2022-10-17T00:19:34;98431.81;;;14.37;74.08
2841;BME280;53423;49.224;12.074;2022-10-17T00:22:02;98443.22;;;14.29;74.92
2841;BME280;53423;49.224;12.074;2022-10-17T00:24:32;98445.34;;;14.34;74.47
2841;BME280;53423;49.224;12.074;2022-10-17T00:26:59;98446.00;;;14.36;74.43
2841;BME280;53423;49.224;12.074;2022-10-17T00:29:27;98457.72;;;14.17;74.69
2841;BME280;53423;49.224;12.074;2022-10-17T00:31:55;98452.44;;;14.17;74.37
2841;BME280;53423;49.224;12.074;2022-10-17T00:34:24;98463.47;;;14.21;74.24
2841;BME280;53423;49.224;12.074;2022-10-17T00:36:52;98447.81;;;14.19;74.38
2841;BME280;53423;49.224;12.074;2022-10-17T00:39:19;98461.03;;;14.27;73.99
2841;BME280;53423;49.224;12.074;2022-10-17T00:42:13;98467.75;;;14.22;74.24
2841;BME280;53423;49.224;12.074;2022-10-17T00:45:13;98467.28;;;14.34;74.11
2841;BME280;53423;49.224;12.074;2022-10-17T00:47:42;98467.13;;;14.28;74.07
2841;BME280;53423;49.224;12.074;2022-10-17T00:50:12;98464.00;;;14.16;74.73
2841;BME280;53423;49.224;12.074;2022-10-17T00:52:40;98470.22;;;14.23;74.49
2841;BME280;53423;49.224;12.074;2022-10-17T00:55:12;98469.25;;;14.16;74.50
2841;BME280;53423;49.224;12.074;2022-10-17T00:57:44;98468.59;;;14.14;74.19
2841;BME280;53423;49.224;12.074;2022-10-17T01:00:14;98465.13;;;14.14;74.07
2841;BME280;53423;49.224;12.074;2022-10-17T01:02:43;98468.44;;;14.08;74.04
2841;BME280;53423;49.224;12.074;2022-10-17T01:05:11;98467.09;;;14.12;74.43
2841;BME280;53423;49.224;12.074;2022-10-17T01:07:40;98460.88;;;14.13;73.91
2841;BME280;53423;49.224;12.074;2022-10-17T01:10:09;98472.03;;;14.15;73.68
2841;BME280;53423;49.224;12.074;2022-10-17T01:12:49;98474.69;;;14.15;74.23
2841;BME280;53423;49.224;12.074;2022-10-17T01:15:30;98474.53;;;14.16;74.12
2841;BME280;53423;49.224;12.074;2022-10-17T01:18:09;98473.38;;;14.19;74.12
2841;BME280;53423;49.224;12.074;2022-10-17T01:21:01;98474.53;;;14.16;74.10
2841;BME280;53423;49.224;12.074;2022-10-17T01:23:51;98474.53;;;14.24;73.67
2841;BME280;53423;49.224;12.074;2022-10-17T01:26:25;98465.63;;;14.17;74.13
2841;BME280;53423;49.224;12.074;2022-10-17T01:29:21;98469.91;;;14.10;74.43
2841;BME280;53423;49.224;12.074;2022-10-17T01:31:57;98473.88;;;14.14;73.93
2841;BME280;53423;49.224;12.074;2022-10-17T01:34:31;98468.59;;;14.06;74.21
2841;BME280;53423;49.224;12.074;2022-10-17T01:37:05;98473.03;;;14.14;74.64
2841;BME280;53423;49.224;12.074;2022-10-17T01:39:40;98470.13;;;13.93;75.27
2841;BME280;53423;49.224;12.074;2022-10-17T01:42:16;98464.66;;;13.94;75.59
2841;BME280;53423;49.224;12.074;2022-10-17T01:44:49;98460.38;;;13.93;75.47
2841;BME280;53423;49.224;12.074;2022-10-17T01:47:23;98462.22;;;13.93;75.16
2841;BME280;53423;49.224;12.074;2022-10-17T01:49:55;98460.34;;;14.01;75.16
2841;BME280;53423;49.224;12.074;2022-10-17T01:52:27;98467.78;;;14.06;75.00
2841;BME280;53423;49.224;12.074;2022-10-17T01:55:02;98468.13;;;14.11;74.32
2841;BME280;53423;49.224;12.074;2022-10-17T01:57:35;98462.16;;;14.09;74.29
2841;BME280;53423;49.224;12.074;2022-10-17T02:00:08;98465.47;;;13.95;74.36
2841;BME280;53423;49.224;12.074;2022-10-17T02:02:40;98473.75;;;13.76;75.16
2841;BME280;53423;49.224;12.074;2022-10-17T02:05:10;98468.28;;;13.85;74.95
2841;BME280;53423;49.224;12.074;2022-10-17T02:07:39;98462.88;;;13.79;74.76
2841;BME280;53423;49.224;12.074;2022-10-17T02:10:14;98466.97;;;13.81;74.70
2841;BME280;53423;49.224;12.074;2022-10-17T02:12:53;98462.38;;;13.75;74.66
2841;BME280;53423;49.224;12.074;2022-10-17T02:15:46;98460.41;;;13.77;74.81
2841;BME280;53423;49.224;12.074;2022-10-17T02:18:37;98466.16;;;13.81;74.44
2841;BME280;53423;49.224;12.074;2022-10-17T02:21:12;98458.72;;;13.76;74.64
2841;BME280;53423;49.224;12.074;2022-10-17T02:23:49;98462.38;;;13.75;75.34
2841;BME280;53423;49.224;12.074;2022-10-17T02:26:23;98463.84;;;13.61;75.90
2841;BME280;53423;49.224;12.074;2022-10-17T02:29:02;98466.31;;;13.55;75.58
2841;BME280;53423;49.224;12.074;2022-10-17T02:31:36;98461.03;;;13.55;76.21
2841;BME280;53423;49.224;12.074;2022-10-17T02:34:08;98462.38;;;13.59;75.61
2841;BME280;53423;49.224;12.074;2022-10-17T02:36:42;98452.16;;;13.48;75.85
2841;BME280;53423;49.224;12.074;2022-10-17T02:39:13;98468.28;;;13.45;75.23
2841;BME280;53423;49.224;12.074;2022-10-17T02:41:43;98461.38;;;13.44;75.85
2841;BME280;53423;49.224;12.074;2022-10-17T02:44:11;98473.38;;;13.38;75.76
2841;BME280;53423;49.224;12.074;2022-10-17T02:46:39;98476.84;;;13.47;75.90
2841;BME280;53423;49.224;12.074;2022-10-17T02:49:14;98469.06;;;13.37;75.74
2841;BME280;53423;49.224;12.074;2022-10-17T02:51:49;98464.16;;;13.42;75.98
2841;BME280;53423;49.224;12.074;2022-10-17T02:54:23;98468.28;;;13.29;76.24
2841;BME280;53423;49.224;12.074;2022-10-17T02:56:58;98464.63;;;13.38;75.87
2841;BME280;53423;49.224;12.074;2022-10-17T02:59:28;98481.28;;;13.38;75.77
2841;BME280;53423;49.224;12.074;2022-10-17T03:02:03;98469.06;;;13.37;75.96
2841;BME280;53423;49.224;12.074;2022-10-17T03:04:33;98471.25;;;13.42;75.55
2841;BME280;53423;49.224;12.074;2022-10-17T03:07:01;98474.03;;;13.40;76.03
2841;BME280;53423;49.224;12.074;2022-10-17T03:09:29;98477.31;;;13.34;76.24
2841;BME280;53423;49.224;12.074;2022-10-17T03:11:57;98475.50;;;13.35;75.35
2841;BME280;53423;49.224;12.074;2022-10-17T03:14:25;98474.84;;;13.33;75.95
2841;BME280;53423;49.224;12.074;2022-10-17T03:16:53;98473.19;;;13.32;76.28
2841;BME280;53423;49.224;12.074;2022-10-17T03:19:21;98470.91;;;13.29;76.18
2841;BME280;53423;49.224;12.074;2022-10-17T03:21:50;98485.69;;;13.30;77.20
2841;BME280;53423;49.224;12.074;2022-10-17T03:24:18;98479.47;;;13.39;76.34
2841;BME280;53423;49.224;12.074;2022-10-17T03:26:46;98480.78;;;13.35;76.70
2841;BME280;53423;49.224;12.074;2022-10-17T03:29:13;98487.34;;;13.31;76.47
2841;BME280;53423;49.224;12.074;2022-10-17T03:31:41;98482.41;;;13.28;77.13
2841;BME280;53423;49.224;12.074;2022-10-17T03:34:09;98483.56;;;13.41;76.67
2841;BME280;53423;49.224;12.074;2022-10-17T03:36:37;98486.72;;;13.37;77.04
2841;BME280;53423;49.224;12.074;2022-10-17T03:39:07;98492.13;;;13.35;76.80
2841;BME280;53423;49.224;12.074;2022-10-17T03:41:34;98490.47;;;13.34;77.08
2841;BME280;53423;49.224;12.074;2022-10-17T03:44:03;98486.88;;;13.35;76.91
2841;BME280;53423;49.224;12.074;2022-10-17T03:46:31;98490.47;;;13.34;76.96
2841;BME280;53423;49.224;12.074;2022-10-17T03:48:59;98494.13;;;13.57;76.63
2841;BME280;53423;49.224;12.074;2022-10-17T03:51:27;98496.41;;;13.44;76.43
2841;BME280;53423;49.224;12.074;2022-10-17T03:53:55;98493.94;;;13.27;77.09
2841;BME280;53423;49.224;12.074;2022-10-17T03:56:25;98496.56;;;13.27;77.26
2841;BME280;53423;49.224;12.074;2022-10-17T03:58:53;98505.66;;;13.40;76.47
2841;BME280;53423;49.224;12.074;2022-10-17T04:01:21;98509.56;;;13.36;76.29
2841;BME280;53423;49.224;12.074;2022-10-17T04:03:49;98503.47;;;13.36;76.24
2841;BME280;53423;49.224;12.074;2022-10-17T04:06:18;98508.09;;;13.34;76.23
2841;BME280;53423;49.224;12.074;2022-10-17T04:08:47;98517.97;;;13.40;75.18
2841;BME280;53423;49.224;12.074;2022-10-17T04:11:17;98518.31;;;13.37;75.56
2841;BME280;53423;49.224;12.074;2022-10-17T04:13:47;98513.03;;;13.37;75.79
2841;BME280;53423;49.224;12.074;2022-10-17T04:16:16;98515.00;;;13.35;75.73
2841;BME280;53423;49.224;12.074;2022-10-17T04:18:44;98515.50;;;13.30;75.62
2841;BME280;53423;49.224;12.074;2022-10-17T04:21:12;98517.63;;;13.35;75.74
2841;BME280;53423;49.224;12.074;2022-10-17T04:23:40;98525.63;;;13.17;76.34
2841;BME280;53423;49.224;12.074;2022-10-17T04:26:08;98526.03;;;13.38;75.63
2841;BME280;53423;49.224;12.074;2022-10-17T04:28:36;98525.81;;;13.24;75.45
2841;BME280;53423;49.224;12.074;2022-10-17T04:31:08;98529.09;;;13.18;75.20
2841;BME280;53423;49.224;12.074;2022-10-17T04:33:37;98529.31;;;13.32;74.77
2841;BME280;53423;49.224;12.074;2022-10-17T04:36:07;98532.25;;;13.21;75.02
2841;BME280;53423;49.224;12.074;2022-10-17T04:38:37;98526.63;;;13.16;75.09
2841;BME280;53423;49.224;12.074;2022-10-17T04:41:06;98538.88;;;13.00;76.00
2841;BME280;53423;49.224;12.074;2022-10-17T04:43:36;98532.56;;;13.18;74.96
2841;BME280;53423;49.224;12.074;2022-10-17T04:46:07;98530.78;;;13.27;74.58
2841;BME280;53423;49.224;12.074;2022-10-17T04:48:36;98534.22;;;13.27;74.26
2841;BME280;53423;49.224;12.074;2022-10-17T04:51:06;98528.47;;;13.24;74.82
2841;BME280;53423;49.224;12.074;2022-10-17T04:53:36;98530.06;;;13.09;75.58
2841;BME280;53423;49.224;12.074;2022-10-17T04:56:09;98534.56;;;13.24;74.84
2841;BME280;53423;49.224;12.074;2022-10-17T04:58:37;98530.63;;;13.20;74.63
2841;BME280;53423;49.224;12.074;2022-10-17T05:01:08;98535.31;;;13.09;74.70
2841;BME280;53423;49.224;12.074;2022-10-17T05:03:36;98531.94;;;12.99;74.78
2841;BME280;53423;49.224;12.074;2022-10-17T05:06:06;98536.66;;;13.13;74.63
2841;BME280;53423;49.224;12.074;2022-10-17T05:08:34;98540.28;;;13.12;74.41
2841;BME280;53423;49.224;12.074;2022-10-17T05:11:03;98543.16;;;13.01;75.06
2841;BME280;53423;49.224;12.074;2022-10-17T05:13:31;98539.59;;;13.02;75.01
2841;BME280;53423;49.224;12.074;2022-10-17T05:16:00;98540.09;;;13.05;75.18
2841;BME280;53423;49.224;12.074;2022-10-17T05:18:29;98540.75;;;13.07;74.85
2841;BME280;53423;49.224;12.074;2022-10-17T05:20:57;98544.03;;;13.09;74.47
2841;BME280;53423;49.224;12.074;2022-10-17T05:23:25;98538.16;;;13.15;74.51
2841;BME280;53423;49.224;12.074;2022-10-17T05:25:53;98538.94;;;13.08;74.68
2841;BME280;53423;49.224;12.074;2022-10-17T05:28:21;98544.72;;;13.11;74.68
2841;BME280;53423;49.224;12.074;2022-10-17T05:30:49;98543.81;;;12.95;75.11
2841;BME280;53423;49.224;12.074;2022-10-17T05:33:17;98553.31;;;12.88;75.12
2841;BME280;53423;49.224;12.074;2022-10-17T05:35:46;98550.94;;;12.77;75.62
2841;BME280;53423;49.224;12.074;2022-10-17T05:38:14;98551.81;;;12.85;75.30
2841;BME280;53423;49.224;12.074;2022-10-17T05:40:42;98553.47;;;12.86;75.02
2841;BME280;53423;49.224;12.074;2022-10-17T05:43:10;98558.78;;;12.69;75.47
2841;BME280;53423;49.224;12.074;2022-10-17T05:45:38;98560.81;;;12.75;76.09
2841;BME280;53423;49.224;12.074;2022-10-17T05:48:06;98566.25;;;12.81;75.37
2841;BME280;53423;49.224;12.074;2022-10-17T05:50:34;98562.28;;;12.77;76.15
2841;BME280;53423;49.224;12.074;2022-10-17T05:53:04;98572.00;;;12.77;75.38
2841;BME280;53423;49.224;12.074;2022-10-17T05:55:31;98571.50;;;12.73;75.25
2841;BME280;53423;49.224;12.074;2022-10-17T05:57:59;98570.88;;;12.87;74.88
2841;BME280;53423;49.224;12.074;2022-10-17T06:00:27;98575.94;;;12.81;75.11
2841;BME280;53423;49.224;12.074;2022-10-17T06:02:56;98576.06;;;12.97;75.26
2841;BME280;53423;49.224;12.074;2022-10-17T06:05:24;98582.38;;;12.78;74.80
2841;BME280;53423;49.224;12.074;2022-10-17T06:07:52;98584.44;;;12.67;75.31
2841;BME280;53423;49.224;12.074;2022-10-17T06:10:27;98587.78;;;12.77;74.47
2841;BME280;53423;49.224;12.074;2022-10-17T06:12:55;98579.41;;;12.81;74.79
2841;BME280;53423;49.224;12.074;2022-10-17T06:15:23;98586.47;;;12.81;74.93
2841;BME280;53423;49.224;12.074;2022-10-17T06:17:51;98591.41;;;12.84;75.13
2841;BME280;53423;49.224;12.074;2022-10-17T06:20:19;98592.63;;;12.64;75.25
2841;BME280;53423;49.224;12.074;2022-10-17T06:22:48;98590.41;;;12.77;75.00
2841;BME280;53423;49.224;12.074;2022-10-17T06:25:16;98602.25;;;12.81;74.90
2841;BME280;53423;49.224;12.074;2022-10-17T06:27:46;98594.22;;;12.82;74.59
2841;BME280;53423;49.224;12.074;2022-10-17T06:30:14;98601.94;;;12.84;73.84
2841;BME280;53423;49.224;12.074;2022-10-17T06:32:42;98592.41;;;12.83;74.54
2841;BME280;53423;49.224;12.074;2022-10-17T06:35:10;98601.34;;;12.90;73.72
2841;BME280;53423;49.224;12.074;2022-10-17T06:37:37;98606.63;;;12.98;72.90
2841;BME280;53423;49.224;12.074;2022-10-17T06:40:08;98600.13;;;13.02;73.24
2841;BME280;53423;49.224;12.074;2022-10-17T06:42:37;98610.72;;;13.18;72.28
2841;BME280;53423;49.224;12.074;2022-10-17T06:45:08;98608.78;;;13.28;71.81
2841;BME280;53423;49.224;12.074;2022-10-17T06:47:36;98608.78;;;13.28;72.19
2841;BME280;53423;49.224;12.074;2022-10-17T06:50:05;98612.78;;;13.40;72.14
2841;BME280;53423;49.224;12.074;2022-10-17T06:52:33;98609.13;;;13.33;71.40
2841;BME280;53423;49.224;12.074;2022-10-17T06:55:01;98615.63;;;13.54;71.21
2841;BME280;53423;49.224;12.074;2022-10-17T06:57:34;98617.31;;;13.63;69.92
2841;BME280;53423;49.224;12.074;2022-10-17T07:00:03;98608.97;;;13.84;70.24
2841;BME280;53423;49.224;12.074;2022-10-17T07:02:32;98619.81;;;13.81;70.51
2841;BME280;53423;49.224;12.074;2022-10-17T07:05:00;98616.25;;;14.14;69.21
2841;BME280;53423;49.224;12.074;2022-10-17T07:07:29;98621.91;;;14.35;67.96
2841;BME280;53423;49.224;12.074;2022-10-17T07:09:58;98631.63;;;14.75;67.75
2841;BME280;53423;49.224;12.074;2022-10-17T07:12:26;98626.47;;;14.73;67.35
2841;BME280;53423;49.224;12.074;2022-10-17T07:14:54;98621.47;;;15.03;66.86
2841;BME280;53423;49.224;12.074;2022-10-17T07:17:21;98626.34;;;15.30;66.70
2841;BME280;53423;49.224;12.074;2022-10-17T07:19:51;98625.69;;;15.44;65.80
2841;BME280;53423;49.224;12.074;2022-10-17T07:22:19;98617.38;;;16.08;62.75
2841;BME280;53423;49.224;12.074;2022-10-17T07:24:46;98627.84;;;16.47;62.74
2841;BME280;53423;49.224;12.074;2022-10-17T07:27:15;98623.50;;;17.20;60.28
2841;BME280;53423;49.224;12.074;2022-10-17T07:29:43;98622.13;;;17.53;58.40
2841;BME280;53423;49.224;12.074;2022-10-17T07:32:11;98618.75;;;17.59;58.26
2841;BME280;53423;49.224;12.074;2022-10-17T07:34:39;98621.03;;;17.98;58.02
2841;BME280;53423;49.224;12.074;2022-10-17T07:37:08;98625.25;;;18.77;55.32
2841;BME280;53423;49.224;12.074;2022-10-17T07:39:37;98618.34;;;19.98;52.56
2841;BME280;53423;49.224;12.074;2022-10-17T07:42:05;98617.63;;;21.28;49.00
2841;BME280;53423;49.224;12.074;2022-10-17T07:44:34;98621.31;;;22.28;46.04
2841;BME280;53423;49.224;12.074;2022-10-17T07:47:02;98621.13;;;23.64;43.52
2841;BME280;53423;49.224;12.074;2022-10-17T07:49:30;98614.13;;;24.40;41.33
2841;BME280;53423;49.224;12.074;2022-10-17T07:51:58;98626.88;;;23.50;42.76
2841;BME280;53423;49.224;12.074;2022-10-17T07:54:27;98628.19;;;22.73;45.24
2841;BME280;53423;49.224;12.074;2022-10-17T07:56:55;98626.50;;;22.54;46.02
2841;BME280;53423;49.224;12.074;2022-10-17T07:59:23;98623.34;;;22.64;46.35
2841;BME280;53423;49.224;12.074;2022-10-17T08:01:54;98627.81;;;22.39;45.96
2841;BME280;53423;49.224;12.074;2022-10-17T08:04:22;98629.09;;;22.30;46.75
2841;BME280;53423;49.224;12.074;2022-10-17T08:06:53;98629.59;;;22.45;47.01
2841;BME280;53423;49.224;12.074;2022-10-17T08:09:45;98631.25;;;22.77;46.16
2841;BME280;53423;49.224;12.074;2022-10-17T08:12:14;98630.28;;;22.71;47.67
2841;BME280;53423;49.224;12.074;2022-10-17T08:14:42;98634.66;;;23.08;45.92
2841;BME280;53423;49.224;12.074;2022-10-17T08:17:10;98625.41;;;23.11;46.30
2841;BME280;53423;49.224;12.074;2022-10-17T08:19:38;98629.09;;;23.34;45.54
2841;BME280;53423;49.224;12.074;2022-10-17T08:22:07;98631.28;;;23.19;46.51
2841;BME280;53423;49.224;12.074;2022-10-17T08:24:35;98632.28;;;23.61;46.41
2841;BME280;53423;49.224;12.074;2022-10-17T08:27:04;98635.84;;;23.73;45.60
2841;BME280;53423;49.224;12.074;2022-10-17T08:29:37;98625.69;;;24.11;44.99
2841;BME280;53423;49.224;12.074;2022-10-17T08:32:06;98631.44;;;23.97;45.33
2841;BME280;53423;49.224;12.074;2022-10-17T08:34:36;98629.16;;;24.00;45.53
2841;BME280;53423;49.224;12.074;2022-10-17T08:37:03;98619.88;;;24.14;46.17
2841;BME280;53423;49.224;12.074;2022-10-17T08:39:32;98610.81;;;24.15;45.73
2841;BME280;53423;49.224;12.074;2022-10-17T08:42:14;98616.34;;;24.43;44.65
2841;BME280;53423;49.224;12.074;2022-10-17T08:44:49;98618.84;;;24.15;45.36
2841;BME280;53423;49.224;12.074;2022-10-17T08:47:23;98625.31;;;24.26;45.20
2841;BME280;53423;49.224;12.074;2022-10-17T08:49:56;98622.50;;;24.74;45.95
2841;BME280;53423;49.224;12.074;2022-10-17T08:52:32;98616.34;;;24.85;44.16
2841;BME280;53423;49.224;12.074;2022-10-17T08:55:04;98609.38;;;24.13;46.27
2841;BME280;53423;49.224;12.074;2022-10-17T08:57:40;98608.75;;;24.70;44.86
2841;BME280;53423;49.224;12.074;2022-10-17T09:00:14;98607.94;;;24.81;44.40
2841;BME280;53423;49.224;12.074;2022-10-17T09:02:53;98611.34;;;25.11;43.06
2841;BME280;53423;49.224;12.074;2022-10-17T09:05:33;98623.47;;;25.14;43.80
2841;BME280;53423;49.224;12.074;2022-10-17T09:08:11;98620.88;;;25.65;41.79
2841;BME280;53423;49.224;12.074;2022-10-17T09:10:49;98622.28;;;26.07;41.08
2841;BME280;53423;49.224;12.074;2022-10-17T09:13:30;98613.41;;;26.23;40.63
2841;BME280;53423;49.224;12.074;2022-10-17T09:16:19;98614.88;;;25.74;42.43
2841;BME280;53423;49.224;12.074;2022-10-17T09:18:57;98609.38;;;26.09;41.39
2841;BME280;53423;49.224;12.074;2022-10-17T09:21:34;98603.78;;;25.99;41.92
2841;BME280;53423;49.224;12.074;2022-10-17T09:24:09;98598.94;;;26.24;40.72
2841;BME280;53423;49.224;12.074;2022-10-17T09:26:44;98602.31;;;26.64;41.32
2841;BME280;53423;49.224;12.074;2022-10-17T09:29:19;98607.50;;;26.38;41.28
2841;BME280;53423;49.224;12.074;2022-10-17T09:31:56;98612.09;;;26.54;40.03
2841;BME280;53423;49.224;12.074;2022-10-17T09:34:27;98599.75;;;26.69;40.06
2841;BME280;53423;49.224;12.074;2022-10-17T09:36:57;98610.41;;;26.20;41.07
2841;BME280;53423;49.224;12.074;2022-10-17T09:39:26;98608.84;;;26.07;41.55
2841;BME280;53423;49.224;12.074;2022-10-17T09:41:59;98611.50;;;26.35;40.50
2841;BME280;53423;49.224;12.074;2022-10-17T09:44:31;98605.00;;;25.92;41.12
2841;BME280;53423;49.224;12.074;2022-10-17T09:47:16;98595.00;;;25.13;43.38
2841;BME280;53423;49.224;12.074;2022-10-17T09:49:46;98603.19;;;25.69;42.47
2841;BME280;53423;49.224;12.074;2022-10-17T09:52:18;98607.31;;;25.60;43.94
2841;BME280;53423;49.224;12.074;2022-10-17T09:54:53;98606.28;;;25.89;43.05
2841;BME280;53423;49.224;12.074;2022-10-17T09:57:22;98606.97;;;25.56;43.54
2841;BME280;53423;49.224;12.074;2022-10-17T09:59:58;98612.00;;;25.53;43.32
2841;BME280;53423;49.224;12.074;2022-10-17T10:02:29;98613.66;;;25.08;44.63
2841;BME280;53423;49.224;12.074;2022-10-17T10:05:01;98604.19;;;24.71;45.70
2841;BME280;53423;49.224;12.074;2022-10-17T10:07:35;98605.72;;;24.25;46.03
2841;BME280;53423;49.224;12.074;2022-10-17T10:10:06;98610.28;;;23.77;47.52
2841;BME280;53423;49.224;12.074;2022-10-17T10:12:36;98607.63;;;24.07;47.65
2841;BME280;53423;49.224;12.074;2022-10-17T10:15:35;98604.81;;;24.02;47.25
2841;BME280;53423;49.224;12.074;2022-10-17T10:18:27;98609.19;;;23.96;47.61
2841;BME280;53423;49.224;12.074;2022-10-17T10:21:07;98608.75;;;23.99;47.27
2841;BME280;53423;49.224;12.074;2022-10-17T10:23:36;98602.28;;;23.71;48.60
2841;BME280;53423;49.224;12.074;2022-10-17T10:26:25;98602.94;;;23.84;48.99
2841;BME280;53423;49.224;12.074;2022-10-17T10:28:56;98608.53;;;23.83;49.09
2841;BME280;53423;49.224;12.074;2022-10-17T10:31:35;98603.09;;;23.89;49.19
2841;BME280;53423;49.224;12.074;2022-10-17T10:34:15;98597.88;;;23.94;48.66
2841;BME280;53423;49.224;12.074;2022-10-17T10:36:48;98597.88;;;23.94;49.00
2841;BME280;53423;49.224;12.074;2022-10-17T10:39:37;98595.13;;;23.83;48.61
2841;BME280;53423;49.224;12.074;2022-10-17T10:42:26;98590.34;;;24.03;48.78
2841;BME280;53423;49.224;12.074;2022-10-17T10:45:01;98583.06;;;24.10;47.90
2841;BME280;53423;49.224;12.074;2022-10-17T10:47:32;98590.19;;;24.16;48.03
2841;BME280;53423;49.224;12.074;2022-10-17T10:50:08;98591.19;;;24.03;49.36
2841;BME280;53423;49.224;12.074;2022-10-17T10:52:45;98585.28;;;24.24;48.85
2841;BME280;53423;49.224;12.074;2022-10-17T10:55:22;98581.66;;;24.07;49.01
2841;BME280;53423;49.224;12.074;2022-10-17T10:57:55;98587.84;;;24.19;48.49
2841;BME280;53423;49.224;12.074;2022-10-17T11:00:28;98585.84;;;24.15;48.25
2841;BME280;53423;49.224;12.074;2022-10-17T11:03:28;98584.03;;;24.27;48.48
2841;BME280;53423;49.224;12.074;2022-10-17T11:06:05;98588.44;;;23.92;49.58
2841;BME280;53423;49.224;12.074;2022-10-17T11:08:42;98590.84;;;23.82;49.48
2841;BME280;53423;49.224;12.074;2022-10-17T11:11:16;98592.16;;;24.09;50.05
2841;BME280;53423;49.224;12.074;2022-10-17T11:13:52;98587.41;;;24.22;49.66
2841;BME280;53423;49.224;12.074;2022-10-17T11:16:29;98587.91;;;24.31;49.24
2841;BME280;53423;49.224;12.074;2022-10-17T11:19:09;98578.81;;;24.43;47.75
2841;BME280;53423;49.224;12.074;2022-10-17T11:21:45;98587.34;;;24.64;47.52
2841;BME280;53423;49.224;12.074;2022-10-17T11:24:20;98582.38;;;24.79;46.90
2841;BME280;53423;49.224;12.074;2022-10-17T11:26:55;98575.03;;;25.09;45.71
2841;BME280;53423;49.224;12.074;2022-10-17T11:29:28;98579.75;;;25.64;44.91
2841;BME280;53423;49.224;12.074;2022-10-17T11:32:25;98574.34;;;26.49;43.65
2841;BME280;53423;49.224;12.074;2022-10-17T11:35:02;98572.53;;;31.06;33.08
2841;BME280;53423;49.224;12.074;2022-10-17T11:37:36;98571.63;;;32.82;29.18
2841;BME280;53423;49.224;12.074;2022-10-17T11:40:15;98571.19;;;32.36;29.86
2841;BME280;53423;49.224;12.074;2022-10-17T11:42:53;98562.88;;;32.90;29.06
2841;BME280;53423;49.224;12.074;2022-10-17T11:45:27;98558.84;;;33.81;27.06
2841;BME280;53423;49.224;12.074;2022-10-17T11:48:24;98560.72;;;35.74;24.88
2841;BME280;53423;49.224;12.074;2022-10-17T11:50:59;98554.56;;;37.28;22.14
2841;BME280;53423;49.224;12.074;2022-10-17T11:53:54;98556.34;;;37.97;20.31
2841;BME280;53423;49.224;12.074;2022-10-17T11:56:30;98545.53;;;39.70;17.52
2841;BME280;53423;49.224;12.074;2022-10-17T11:59:26;98542.44;;;39.05;18.70
2841;BME280;53423;49.224;12.074;2022-10-17T12:02:07;98544.72;;;39.99;17.58
2841;BME280;53423;49.224;12.074;2022-10-17T12:04:46;98534.25;;;40.33;17.71
2841;BME280;53423;49.224;12.074;2022-10-17T12:07:22;98536.06;;;40.83;16.77
2841;BME280;53423;49.224;12.074;2022-10-17T12:09:58;98537.69;;;39.22;18.06
2841;BME280;53423;49.224;12.074;2022-10-17T12:12:29;98532.47;;;36.41;22.27
2841;BME280;53423;49.224;12.074;2022-10-17T12:15:29;98529.09;;;32.33;27.15
2841;BME280;53423;49.224;12.074;2022-10-17T12:17:58;98533.56;;;30.52;30.05
2841;BME280;53423;49.224;12.074;2022-10-17T12:20:33;98529.91;;;29.09;32.90
2841;BME280;53423;49.224;12.074;2022-10-17T12:23:18;98517.81;;;28.12;35.57
2841;BME280;53423;49.224;12.074;2022-10-17T12:25:50;98530.38;;;27.53;37.87
2841;BME280;53423;49.224;12.074;2022-10-17T12:28:26;98521.75;;;27.29;38.19
2841;BME280;53423;49.224;12.074;2022-10-17T12:30:58;98527.16;;;27.13;38.85
2841;BME280;53423;49.224;12.074;2022-10-17T12:33:31;98524.78;;;27.16;39.33
2841;BME280;53423;49.224;12.074;2022-10-17T12:42:48;98520.78;;;26.31;39.45
2841;BME280;53423;49.224;12.074;2022-10-17T12:45:48;98518.28;;;26.24;40.78
2841;BME280;53423;49.224;12.074;2022-10-17T12:54:52;98513.63;;;25.92;40.74
2841;BME280;53423;49.224;12.074;2022-10-17T12:57:41;98514.00;;;25.67;40.47
2841;BME280;53423;49.224;12.074;2022-10-17T13:00:16;98511.66;;;25.19;42.85
2841;BME280;53423;49.224;12.074;2022-10-17T13:02:45;98517.94;;;25.36;42.71
2841;BME280;53423;49.224;12.074;2022-10-17T13:05:18;98521.94;;;25.11;43.16
2841;BME280;53423;49.224;12.074;2022-10-17T13:07:49;98515.97;;;25.20;43.31
2841;BME280;53423;49.224;12.074;2022-10-17T13:10:20;98516.84;;;24.86;43.63
2841;BME280;53423;49.224;12.074;2022-10-17T13:12:50;98519.66;;;24.80;43.63
2841;BME280;53423;49.224;12.074;2022-10-17T13:15:21;98519.53;;;24.86;44.83
2841;BME280;53423;49.224;12.074;2022-10-17T13:17:56;98521.88;;;24.83;45.54
2841;BME280;53423;49.224;12.074;2022-10-17T13:20:27;98519.28;;;24.99;46.10
2841;BME280;53423;49.224;12.074;2022-10-17T13:22:57;98527.53;;;25.09;44.69
2841;BME280;53423;49.224;12.074;2022-10-17T13:25:27;98528.81;;;25.07;44.55
2841;BME280;53423;49.224;12.074;2022-10-17T13:28:09;98535.34;;;25.22;44.16
2841;BME280;53423;49.224;12.074;2022-10-17T13:30:45;98532.22;;;25.02;45.33
2841;BME280;53423;49.224;12.074;2022-10-17T13:33:32;98527.28;;;24.53;46.72
2841;BME280;53423;49.224;12.074;2022-10-17T13:36:02;98528.38;;;24.75;46.48
2841;BME280;53423;49.224;12.074;2022-10-17T13:38:33;98539.06;;;24.40;45.92
2841;BME280;53423;49.224;12.074;2022-10-17T13:41:11;98538.13;;;24.35;46.74
2841;BME280;53423;49.224;12.074;2022-10-17T13:44:01;98545.34;;;23.93;47.17